Time;durP1;ratioP1;P1;durP2;ratioP2;P2;SDS_P1;SDS_P2;PMS_P1;PMS_P2;Temp;Humidity;BMP_temperature;BMP_pressure;BME280_temperature;BME280_humidity;BME280_pressure;Samples;Min_cycle;Max_cycle;Signal;HPM_P1;HPM_P2
2020/12/10 00:00:29;;;;;;;39.00;23.23;;;8.10;99.90;;;;;;4886553;29;20040;-68
2020/12/10 00:02:54;;;;;;;36.17;22.83;;;8.20;99.90;;;;;;4883391;29;20041;-68
2020/12/10 00:05:20;;;;;;;34.83;21.48;;;8.20;99.90;;;;;;4878981;29;20032;-70
2020/12/10 00:07:46;;;;;;;38.03;22.67;;;8.20;99.90;;;;;;4878822;29;20033;-69
2020/12/10 00:10:11;;;;;;;29.83;19.73;;;8.10;99.90;;;;;;4878692;29;20359;-70
2020/12/10 00:12:41;;;;;;;33.15;20.73;;;8.20;99.90;;;;;;4888707;29;20590;-72
2020/12/10 00:15:07;;;;;;;34.20;20.83;;;8.10;99.90;;;;;;4897275;29;20036;-69
2020/12/10 00:17:33;;;;;;;35.25;21.55;;;8.10;99.90;;;;;;4897621;29;20481;-70
2020/12/10 00:19:59;;;;;;;33.70;20.10;;;8.10;99.90;;;;;;4897244;29;20025;-69
2020/12/10 00:22:25;;;;;;;30.10;18.85;;;8.10;99.90;;;;;;4899504;29;20036;-69
2020/12/10 00:24:51;;;;;;;30.45;18.50;;;8.10;99.90;;;;;;4908463;29;20435;-68
2020/12/10 00:27:22;;;;;;;32.60;20.25;;;8.10;99.90;;;;;;4916083;29;20032;-68
2020/12/10 00:29:47;;;;;;;31.70;20.02;;;8.10;99.90;;;;;;4916173;29;20053;-71
2020/12/10 00:32:13;;;;;;;32.60;19.23;;;8.10;99.90;;;;;;4909527;29;20179;-71
2020/12/10 00:34:40;;;;;;;32.80;19.80;;;8.10;99.90;;;;;;4896400;29;20032;-69
2020/12/10 00:37:06;;;;;;;32.10;19.25;;;8.10;99.90;;;;;;4897293;29;20431;-68
2020/12/10 00:39:34;;;;;;;29.90;19.48;;;8.10;99.90;;;;;;4896891;29;20020;-69
2020/12/10 00:41:59;;;;;;;30.27;18.73;;;8.10;99.90;;;;;;4900706;29;20042;-69
2020/12/10 00:44:25;;;;;;;34.05;20.38;;;8.10;99.90;;;;;;4915516;29;20115;-67
2020/12/10 00:46:51;;;;;;;30.73;19.23;;;8.10;99.90;;;;;;4915489;29;20392;-69
2020/12/10 00:49:16;;;;;;;32.70;18.98;;;8.10;99.90;;;;;;4915610;29;20147;-68
2020/12/10 00:51:46;;;;;;;33.55;19.25;;;8.00;99.90;;;;;;4913713;29;20024;-68
2020/12/10 00:54:12;;;;;;;29.00;18.65;;;8.10;99.90;;;;;;4896587;29;20035;-70
2020/12/10 00:56:38;;;;;;;31.08;19.45;;;8.10;99.90;;;;;;4896559;29;20028;-69
2020/12/10 00:59:03;;;;;;;33.83;20.48;;;8.00;99.90;;;;;;4896598;29;20054;-68
2020/12/10 01:01:30;;;;;;;32.83;20.58;;;8.00;99.90;;;;;;4896782;29;20132;-67
2020/12/10 01:03:56;;;;;;;32.67;19.92;;;8.00;99.90;;;;;;4877950;29;20041;-70
2020/12/10 01:06:21;;;;;;;31.10;18.67;;;8.00;99.90;;;;;;4877952;29;20512;-69
2020/12/10 01:08:47;;;;;;;33.22;19.73;;;8.00;99.90;;;;;;4877832;29;20040;-69
2020/12/10 01:11:13;;;;;;;32.33;19.70;;;8.10;99.90;;;;;;4877705;29;20021;-71
2020/12/10 01:13:39;;;;;;;33.85;18.85;;;8.10;99.90;;;;;;4910618;29;20060;-70
2020/12/10 01:16:05;;;;;;;29.20;18.40;;;8.10;99.90;;;;;;4915319;29;20036;-68
2020/12/10 01:18:31;;;;;;;30.58;19.17;;;8.10;99.90;;;;;;4915290;29;20512;-69
2020/12/10 01:20:57;;;;;;;29.52;16.98;;;8.10;99.90;;;;;;4915200;29;20028;-68
2020/12/10 01:23:22;;;;;;;30.58;18.42;;;8.10;99.90;;;;;;4900490;29;20135;-70
2020/12/10 01:25:48;;;;;;;26.70;16.08;;;8.10;99.90;;;;;;4896175;29;20123;-72
2020/12/10 01:28:13;;;;;;;36.70;21.02;;;8.20;99.90;;;;;;4896001;29;20032;-67
2020/12/10 01:30:39;;;;;;;33.65;18.75;;;8.00;99.90;;;;;;4896443;29;20127;-68
2020/12/10 01:33:05;;;;;;;30.90;18.25;;;8.00;99.90;;;;;;4907499;29;20032;-68
2020/12/10 01:35:30;;;;;;;26.42;15.98;;;8.10;99.90;;;;;;4915283;29;20032;-69
2020/12/10 01:37:56;;;;;;;27.20;16.77;;;8.00;99.90;;;;;;4915032;29;20032;-68
2020/12/10 01:40:21;;;;;;;33.25;18.17;;;8.00;99.90;;;;;;4915136;29;20382;-67
2020/12/10 01:42:47;;;;;;;34.35;19.70;;;8.00;99.90;;;;;;4905570;29;20064;-69
2020/12/10 01:45:13;;;;;;;31.35;18.10;;;8.00;99.90;;;;;;4897328;29;20032;-69
2020/12/10 01:47:39;;;;;;;26.92;16.02;;;8.00;99.90;;;;;;4901397;29;20064;-68
2020/12/10 01:50:05;;;;;;;26.85;15.77;;;8.10;99.90;;;;;;4902655;29;20032;-69
2020/12/10 01:52:32;;;;;;;29.27;16.98;;;8.10;99.90;;;;;;4908808;29;20032;-68
2020/12/10 01:54:57;;;;;;;31.48;17.35;;;8.00;99.90;;;;;;4921567;29;20028;-67
2020/12/10 01:57:23;;;;;;;32.58;17.77;;;8.10;99.90;;;;;;4921250;29;20487;-69
2020/12/10 01:59:49;;;;;;;33.58;19.60;;;8.00;99.90;;;;;;4920809;29;20480;-68
2020/12/10 02:02:15;;;;;;;29.33;17.17;;;8.00;99.90;;;;;;4916646;29;20028;-67
2020/12/10 02:04:42;;;;;;;28.35;16.65;;;8.00;99.90;;;;;;4902200;29;20044;-68
2020/12/10 02:07:07;;;;;;;30.85;17.90;;;8.10;99.90;;;;;;4902145;29;20028;-71
2020/12/10 02:09:33;;;;;;;27.52;16.58;;;8.10;99.90;;;;;;4902325;29;20036;-68
2020/12/10 02:11:59;;;;;;;28.25;16.20;;;8.00;99.90;;;;;;4903479;29;20091;-68
2020/12/10 02:14:35;;;;;;;29.45;17.33;;;8.10;99.90;;;;;;4920962;29;20063;-70
2020/12/10 02:17:02;;;;;;;30.95;17.80;;;8.00;99.90;;;;;;4920986;29;20020;-68
2020/12/10 02:19:28;;;;;;;33.00;19.10;;;8.00;99.90;;;;;;4921404;29;20028;-69
2020/12/10 02:21:54;;;;;;;33.75;18.00;;;8.00;99.90;;;;;;4919417;29;20520;-68
2020/12/10 02:24:21;;;;;;;33.83;19.02;;;8.00;99.90;;;;;;4907018;29;20063;-67
2020/12/10 02:26:46;;;;;;;32.20;19.27;;;8.00;99.90;;;;;;4920756;29;20021;-67
2020/12/10 02:29:13;;;;;;;34.67;16.98;;;8.00;99.90;;;;;;4920881;29;20159;-68
2020/12/10 02:31:38;;;;;;;34.67;18.83;;;8.00;99.90;;;;;;4903872;29;20028;-67
2020/12/10 02:34:08;;;;;;;32.70;18.85;;;8.00;99.90;;;;;;4903970;29;20040;-69
2020/12/10 02:36:35;;;;;;;31.85;18.25;;;8.00;99.90;;;;;;4902102;29;20033;-68
2020/12/10 02:39:01;;;;;;;30.65;17.85;;;8.00;99.90;;;;;;4902041;29;20107;-67
2020/12/10 02:41:27;;;;;;;29.45;16.40;;;8.00;99.90;;;;;;4901662;29;20112;-68
2020/12/10 02:43:53;;;;;;;31.55;17.70;;;8.00;99.90;;;;;;4917613;29;20135;-69
2020/12/10 02:46:19;;;;;;;26.35;16.50;;;8.00;99.90;;;;;;4920412;29;20036;-70
2020/12/10 02:48:45;;;;;;;31.90;18.35;;;8.00;99.90;;;;;;4920540;29;20032;-70
2020/12/10 02:51:11;;;;;;;34.20;18.70;;;8.00;99.90;;;;;;4920945;29;20370;-69
2020/12/10 02:53:38;;;;;;;29.27;17.05;;;8.00;99.90;;;;;;4906576;29;20440;-68
2020/12/10 02:56:11;;;;;;;25.92;15.35;;;8.00;99.90;;;;;;4901341;29;20032;-67
2020/12/10 02:58:38;;;;;;;26.73;16.30;;;8.00;99.90;;;;;;4897939;29;20033;-68
2020/12/10 03:01:08;;;;;;;28.60;16.00;;;8.00;99.90;;;;;;4904870;29;20373;-68
2020/12/10 03:03:34;;;;;;;32.35;17.25;;;8.00;99.90;;;;;;4917754;29;20028;-68
2020/12/10 03:06:00;;;;;;;28.40;16.83;;;7.90;99.90;;;;;;4918024;29;20024;-68
2020/12/10 03:08:26;;;;;;;26.48;15.60;;;8.00;99.90;;;;;;4917714;29;20035;-69
2020/12/10 03:10:53;;;;;;;23.23;14.77;;;8.00;99.90;;;;;;4913079;29;20071;-68
2020/12/10 03:13:20;;;;;;;23.52;13.68;;;8.00;99.90;;;;;;4898323;29;20522;-69
2020/12/10 03:15:45;;;;;;;26.95;14.75;;;8.10;99.90;;;;;;4898527;29;20033;-69
2020/12/10 03:18:11;;;;;;;24.00;14.82;;;8.00;99.90;;;;;;4898737;29;20028;-77
2020/12/10 03:20:37;;;;;;;25.90;14.88;;;8.00;99.90;;;;;;4899888;29;20434;-69
2020/12/10 03:23:04;;;;;;;26.13;14.38;;;8.00;99.90;;;;;;4915498;29;20032;-70
2020/12/10 03:25:30;;;;;;;25.27;14.93;;;8.00;99.90;;;;;;4917263;29;20481;-69
2020/12/10 03:27:55;;;;;;;24.00;13.75;;;8.00;99.90;;;;;;4917370;29;20055;-70
2020/12/10 03:30:21;;;;;;;32.25;16.15;;;8.10;99.90;;;;;;4917220;29;20500;-70
2020/12/10 03:32:47;;;;;;;30.13;15.93;;;8.00;99.90;;;;;;4910960;29;20025;-69
2020/12/10 03:35:13;;;;;;;28.60;15.52;;;8.00;99.90;;;;;;4896872;29;20071;-68
2020/12/10 03:37:39;;;;;;;29.30;15.02;;;7.90;99.90;;;;;;4898290;29;20028;-69
2020/12/10 03:40:04;;;;;;;26.13;14.95;;;7.90;99.90;;;;;;4898367;29;20103;-70
2020/12/10 03:42:31;;;;;;;23.83;13.10;;;7.90;99.90;;;;;;4901663;29;20057;-73
2020/12/10 03:44:56;;;;;;;23.08;12.95;;;8.00;99.90;;;;;;4916802;29;20480;-69
2020/12/10 03:47:22;;;;;;;24.80;13.25;;;8.00;99.90;;;;;;4916695;29;20146;-69
2020/12/10 03:49:49;;;;;;;23.10;13.15;;;8.00;99.90;;;;;;4916680;29;20040;-68
2020/12/10 03:52:15;;;;;;;22.02;12.63;;;8.00;99.90;;;;;;4915392;29;20536;-70
2020/12/10 03:54:41;;;;;;;19.75;11.35;;;8.00;99.90;;;;;;4898036;29;20037;-69
2020/12/10 03:57:07;;;;;;;23.20;12.88;;;8.10;99.90;;;;;;4897522;29;20037;-69
2020/12/10 03:59:32;;;;;;;21.48;12.18;;;8.00;99.90;;;;;;4881018;29;20048;-70
2020/12/10 04:01:58;;;;;;;20.55;12.00;;;8.10;99.90;;;;;;4897375;29;20107;-67
2020/12/10 04:04:24;;;;;;;20.75;12.73;;;8.00;99.90;;;;;;4915162;29;20445;-68
2020/12/10 04:06:49;;;;;;;24.10;12.45;;;8.10;99.90;;;;;;4916624;29;20028;-67
2020/12/10 04:09:15;;;;;;;25.10;12.80;;;8.00;99.90;;;;;;4915395;29;20115;-69
2020/12/10 04:11:42;;;;;;;19.10;11.43;;;8.00;99.90;;;;;;4916249;29;20020;-69
2020/12/10 04:14:08;;;;;;;21.95;12.05;;;8.00;99.90;;;;;;4900485;29;20090;-71
2020/12/10 04:16:34;;;;;;;22.40;11.38;;;8.00;99.90;;;;;;4897704;29;20539;-70
2020/12/10 04:19:00;;;;;;;23.45;12.63;;;8.00;99.90;;;;;;4897259;29;20389;-70
2020/12/10 04:21:26;;;;;;;21.95;11.48;;;7.90;99.90;;;;;;4897358;29;20025;-70
2020/12/10 04:23:52;;;;;;;20.92;11.52;;;8.00;99.90;;;;;;4910333;29;20100;-70
2020/12/10 04:26:18;;;;;;;20.38;11.02;;;7.90;99.90;;;;;;4915917;29;20587;-70
2020/12/10 04:28:44;;;;;;;23.27;11.20;;;7.90;99.90;;;;;;4916228;29;20031;-69
2020/12/10 04:31:10;;;;;;;20.30;11.73;;;7.90;99.90;;;;;;4915851;29;20488;-66
2020/12/10 04:33:37;;;;;;;20.40;11.63;;;7.90;99.90;;;;;;4912656;29;20449;-69
2020/12/10 04:36:04;;;;;;;20.23;11.20;;;7.90;99.90;;;;;;4915913;29;20035;-69
2020/12/10 04:38:31;;;;;;;22.63;12.07;;;7.90;99.90;;;;;;4916512;29;20087;-68
2020/12/10 04:41:02;;;;;;;20.40;11.38;;;7.90;99.90;;;;;;4916179;29;20119;-69
2020/12/10 04:43:28;;;;;;;20.80;11.00;;;7.90;99.90;;;;;;4905956;29;20040;-69
2020/12/10 04:45:59;;;;;;;21.27;11.57;;;7.90;99.90;;;;;;4896969;29;20028;-69
2020/12/10 04:48:30;;;;;;;21.65;11.48;;;7.90;99.90;;;;;;4896839;29;20052;-74
2020/12/10 04:50:58;;;;;;;17.50;9.60;;;7.90;99.90;;;;;;4896852;29;20097;-69
2020/12/10 04:53:25;;;;;;;17.38;9.63;;;8.00;99.90;;;;;;4905709;29;20400;-69
2020/12/10 04:55:57;;;;;;;20.45;11.52;;;8.00;99.90;;;;;;4915161;29;20038;-68
2020/12/10 04:58:22;;;;;;;18.75;10.23;;;8.00;99.90;;;;;;4915569;29;20032;-68
2020/12/10 05:00:56;;;;;;;19.63;9.90;;;8.00;99.90;;;;;;4915688;29;20032;-69
2020/12/10 05:03:23;;;;;;;18.67;10.52;;;8.00;99.90;;;;;;4906803;29;20038;-69
2020/12/10 05:05:49;;;;;;;20.58;10.73;;;8.00;99.90;;;;;;4900287;29;20044;-69
2020/12/10 05:08:14;;;;;;;18.92;9.98;;;8.00;99.90;;;;;;4915364;29;20028;-70
2020/12/10 05:10:45;;;;;;;17.95;9.77;;;7.90;99.90;;;;;;4915326;29;20028;-68
2020/12/10 05:13:12;;;;;;;17.95;10.57;;;8.00;99.90;;;;;;4907951;29;20414;-68
2020/12/10 05:15:39;;;;;;;19.48;10.60;;;8.00;99.90;;;;;;4896647;29;20036;-69
2020/12/10 05:18:10;;;;;;;19.08;10.63;;;8.00;99.90;;;;;;4896346;29;20020;-67
2020/12/10 05:21:12;;;;;;;20.15;11.73;;;8.00;99.90;;;;;;4905375;29;20090;-68
2020/12/10 05:23:39;;;;;;;19.45;10.65;;;8.00;99.90;;;;;;4820210;29;20092;-68
2020/12/10 05:26:06;;;;;;;18.58;10.65;;;8.00;99.90;;;;;;4819930;29;20038;-68
2020/12/10 05:28:49;;;;;;;18.23;10.95;;;8.00;99.90;;;;;;4820216;29;20045;-68
2020/12/10 05:31:17;;;;;;;20.63;11.02;;;8.00;99.90;;;;;;4806095;29;20034;-70
2020/12/10 05:34:00;;;;;;;23.55;12.20;;;8.00;99.90;;;;;;4801991;29;20053;-69
2020/12/10 05:36:28;;;;;;;19.63;11.35;;;8.00;99.90;;;;;;4801861;29;20038;-68
2020/12/10 05:38:58;;;;;;;22.30;12.48;;;8.00;99.90;;;;;;4801923;29;20600;-69
2020/12/10 05:41:25;;;;;;;23.45;11.43;;;7.90;99.90;;;;;;4815820;29;20061;-69
2020/12/10 05:43:50;;;;;;;20.13;10.57;;;8.00;99.90;;;;;;4801690;29;20039;-69
2020/12/10 05:46:22;;;;;;;20.02;10.88;;;8.00;99.90;;;;;;4816240;29;20551;-68
2020/12/10 05:48:49;;;;;;;17.67;10.68;;;7.90;99.90;;;;;;4818285;29;20045;-68
2020/12/10 05:51:20;;;;;;;19.25;10.75;;;8.00;99.90;;;;;;4820098;29;20071;-71
2020/12/10 05:53:48;;;;;;;19.70;10.73;;;7.90;99.90;;;;;;4820057;29;20126;-69
2020/12/10 05:56:15;;;;;;;18.33;10.35;;;7.90;99.90;;;;;;4819814;29;20484;-69
2020/12/10 05:58:48;;;;;;;22.35;10.88;;;7.90;99.90;;;;;;4837061;29;20045;-68
2020/12/10 06:01:26;;;;;;;16.55;8.98;;;7.90;99.90;;;;;;4904602;29;20028;-68
2020/12/10 06:03:54;;;;;;;19.85;9.82;;;8.00;99.90;;;;;;4914326;29;20048;-69
2020/12/10 06:06:21;;;;;;;20.50;10.20;;;8.00;99.90;;;;;;4906967;29;20122;-68
2020/12/10 06:08:49;;;;;;;18.88;10.32;;;8.00;99.90;;;;;;4914664;29;20132;-69
2020/12/10 06:11:19;;;;;;;18.35;9.27;;;8.00;99.90;;;;;;4914771;29;20032;-70
2020/12/10 06:13:46;;;;;;;18.70;9.48;;;8.00;99.90;;;;;;4914444;29;20079;-70
2020/12/10 06:16:18;;;;;;;17.08;9.18;;;8.00;99.90;;;;;;4903158;29;20044;-69
2020/12/10 06:19:01;;;;;;;17.58;8.90;;;8.00;99.90;;;;;;4895728;29;20498;-69
2020/12/10 06:21:40;;;;;;;16.92;9.57;;;8.00;99.90;;;;;;4895997;29;20138;-69
2020/12/10 06:24:25;;;;;;;16.20;9.48;;;8.00;99.90;;;;;;4895965;29;20462;-69
2020/12/10 06:26:51;;;;;;;16.95;9.52;;;8.00;99.90;;;;;;4897761;29;20123;-69
2020/12/10 06:29:31;;;;;;;17.58;8.50;;;8.00;99.90;;;;;;4914237;29;20465;-70
2020/12/10 06:32:11;;;;;;;15.57;8.70;;;8.00;99.90;;;;;;4914848;29;20031;-69
2020/12/10 06:34:47;;;;;;;14.35;7.85;;;8.00;99.90;;;;;;4918538;29;20031;-73
2020/12/10 06:37:31;;;;;;;15.00;7.15;;;8.10;99.90;;;;;;4880474;29;20040;-67
2020/12/10 06:40:00;;;;;;;19.45;8.90;;;8.10;99.90;;;;;;4880530;29;20077;-68
2020/12/10 06:42:43;;;;;;;21.10;9.27;;;8.00;99.90;;;;;;4863020;29;20069;-70
2020/12/10 06:45:42;;;;;;;14.37;8.40;;;8.00;99.90;;;;;;4885705;29;20046;-69
2020/12/10 06:48:10;;;;;;;23.35;9.02;;;8.00;99.90;;;;;;4915164;29;20056;-68
2020/12/10 06:50:38;;;;;;;16.10;8.18;;;8.00;99.90;;;;;;4899220;29;20081;-68
2020/12/10 06:53:12;;;;;;;15.05;8.10;;;8.00;99.90;;;;;;4899201;29;20052;-67
2020/12/10 06:55:56;;;;;;;;;;;8.00;99.90;;;;;;4905271;29;20543;-67
2020/12/10 06:58:50;;;;;;;15.32;8.07;;;8.00;99.90;;;;;;4917831;29;19907;-74
2020/12/10 07:01:21;;;;;;;16.87;8.23;;;8.00;99.90;;;;;;4913874;29;20123;-66
2020/12/10 07:03:48;;;;;;;13.98;7.82;;;8.10;99.90;;;;;;4917788;29;20429;-74
2020/12/10 07:06:20;;;;;;;15.73;8.32;;;8.00;99.90;;;;;;4906572;29;20466;-70
2020/12/10 07:09:09;;;;;;;15.95;8.50;;;8.10;99.90;;;;;;4898516;29;20039;-70
2020/12/10 07:11:43;;;;;;;15.23;7.75;;;8.10;99.90;;;;;;4898378;29;20520;-68
2020/12/10 07:14:25;;;;;;;;;;;8.10;99.90;;;;;;4914894;29;20055;-69
2020/12/10 07:16:51;;;;;;;15.38;8.35;;;8.10;99.90;;;;;;4917464;29;19915;-72
2020/12/10 07:19:17;;;;;;;24.08;11.98;;;8.10;99.90;;;;;;4917181;29;20027;-70
2020/12/10 07:21:43;;;;;;;28.10;11.98;;;7.20;99.90;;;;;;4917564;29;20378;-69
2020/12/10 07:24:09;;;;;;;25.38;12.73;;;6.70;99.90;;;;;;4900235;29;20047;-69
2020/12/10 07:26:35;;;;;;;25.65;12.88;;;6.60;99.90;;;;;;4898354;29;20317;-68
2020/12/10 07:29:00;;;;;;;26.05;13.32;;;6.50;99.90;;;;;;4906626;29;20369;-69
2020/12/10 07:31:26;;;;;;;27.77;13.40;;;6.30;99.90;;;;;;4916987;29;20075;-69
2020/12/10 07:33:56;;;;;;;23.15;12.55;;;6.30;99.90;;;;;;4916268;29;20072;-69
2020/12/10 07:36:22;;;;;;;23.73;12.98;;;6.30;99.90;;;;;;4916928;29;20469;-74
2020/12/10 07:38:48;;;;;;;25.92;13.55;;;6.40;99.90;;;;;;4917220;29;20044;-72
2020/12/10 07:41:14;;;;;;;22.50;13.77;;;6.30;99.90;;;;;;4916921;29;20049;-73
2020/12/10 07:43:53;;;;;;;25.02;13.70;;;6.20;99.90;;;;;;4903905;29;20135;-71
2020/12/10 07:46:19;;;;;;;24.67;13.88;;;6.10;99.90;;;;;;4897960;29;20032;-73
2020/12/10 07:48:48;;;;;;;22.08;13.07;;;6.20;99.90;;;;;;4896773;29;20396;-74
2020/12/10 07:51:20;;;;;;;23.70;13.25;;;6.10;99.90;;;;;;4898111;29;20029;-73
2020/12/10 07:53:47;;;;;;;22.40;14.07;;;6.10;99.90;;;;;;4910668;29;20032;-74
2020/12/10 07:56:22;;;;;;;25.08;14.23;;;6.00;99.90;;;;;;4900193;29;20085;-74
2020/12/10 07:59:06;;;;;;;26.05;14.25;;;5.90;99.90;;;;;;4897693;29;20068;-74
2020/12/10 08:01:47;;;;;;;24.35;15.18;;;5.90;99.90;;;;;;4900781;29;20047;-74
2020/12/10 08:04:17;;;;;;;23.08;12.93;;;5.90;99.90;;;;;;4908325;29;20128;-73
2020/12/10 08:06:44;;;;;;;24.35;14.20;;;5.90;99.90;;;;;;4897924;29;20039;-73
2020/12/10 08:09:10;;;;;;;24.90;13.80;;;6.00;99.90;;;;;;4897750;29;20040;-72
2020/12/10 08:11:51;;;;;;;23.42;13.98;;;6.00;99.90;;;;;;4900203;29;20032;-73
2020/12/10 08:14:25;;;;;;;25.25;12.55;;;6.10;99.90;;;;;;4916288;29;20054;-73
2020/12/10 08:16:50;;;;;;;19.85;11.13;;;6.10;99.90;;;;;;4916380;29;20107;-74
2020/12/10 08:19:21;;;;;;;18.95;12.18;;;6.00;99.90;;;;;;4916429;29;20103;-74
2020/12/10 08:21:48;;;;;;;17.30;11.35;;;6.00;99.90;;;;;;4914728;29;20036;-73
2020/12/10 08:24:35;;;;;;;18.40;10.80;;;6.20;99.90;;;;;;4916193;29;20552;-73
2020/12/10 08:27:01;;;;;;;19.35;10.05;;;6.20;99.90;;;;;;4914712;29;20024;-73
2020/12/10 08:29:26;;;;;;;19.45;10.95;;;6.20;99.90;;;;;;4903623;29;20031;-74
2020/12/10 08:32:05;;;;;;;18.95;10.45;;;6.40;99.90;;;;;;4897472;29;20111;-74
2020/12/10 08:34:31;;;;;;;17.08;9.95;;;6.20;99.90;;;;;;4897339;29;20389;-73
2020/12/10 08:37:03;;;;;;;18.67;10.60;;;6.30;99.90;;;;;;4897032;29;20032;-73
2020/12/10 08:39:33;;;;;;;16.10;9.85;;;6.30;99.90;;;;;;4908438;29;20080;-74
2020/12/10 08:41:59;;;;;;;19.65;10.38;;;6.30;99.90;;;;;;4915719;29;20043;-74
2020/12/10 08:44:25;;;;;;;17.90;10.38;;;6.30;99.90;;;;;;4915844;29;20036;-74
2020/12/10 08:47:00;;;;;;;16.95;10.43;;;6.30;99.90;;;;;;4916002;29;20032;-73
2020/12/10 08:49:26;;;;;;;21.20;10.07;;;6.10;99.90;;;;;;4915717;29;20066;-73
2020/12/10 08:51:52;;;;;;;17.20;10.68;;;6.20;99.90;;;;;;4895128;29;20505;-73
2020/12/10 08:54:18;;;;;;;21.10;10.38;;;6.20;99.90;;;;;;4896713;29;20035;-73
2020/12/10 08:56:44;;;;;;;19.30;10.15;;;6.10;99.90;;;;;;4896280;29;20371;-73
2020/12/10 08:59:10;;;;;;;15.40;10.15;;;6.10;99.90;;;;;;4896675;29;20029;-72
2020/12/10 09:01:36;;;;;;;22.38;10.07;;;6.00;99.90;;;;;;4896872;29;20036;-73
2020/12/10 09:04:02;;;;;;;17.25;10.02;;;6.20;99.90;;;;;;4896700;29;20040;-72
2020/12/10 09:06:36;;;;;;;19.38;10.13;;;6.30;99.90;;;;;;4910928;29;20032;-73
2020/12/10 09:09:04;;;;;;;19.65;9.90;;;6.20;99.90;;;;;;4899314;29;20036;-73
2020/12/10 09:11:30;;;;;;;18.10;9.63;;;6.40;99.90;;;;;;4896456;29;20036;-74
2020/12/10 09:13:59;;;;;;;20.92;9.73;;;6.50;99.90;;;;;;4896445;29;20057;-73
2020/12/10 09:16:29;;;;;;;16.30;9.10;;;6.50;99.90;;;;;;4896442;29;20032;-74
2020/12/10 09:18:54;;;;;;;19.27;9.40;;;6.70;99.90;;;;;;4896575;29;20489;-72
2020/12/10 09:21:20;;;;;;;18.83;8.98;;;6.70;99.90;;;;;;4896290;29;20040;-72
2020/12/10 09:23:47;;;;;;;16.88;9.20;;;6.50;99.90;;;;;;4914597;29;20044;-73
2020/12/10 09:26:14;;;;;;;16.30;10.07;;;6.80;99.90;;;;;;4915233;29;20179;-73
2020/12/10 09:28:40;;;;;;;15.40;8.88;;;6.70;99.90;;;;;;4915277;29;20036;-72
2020/12/10 09:31:06;;;;;;;16.00;9.45;;;6.60;99.90;;;;;;4915051;29;20056;-72
2020/12/10 09:33:32;;;;;;;18.55;10.13;;;6.60;99.90;;;;;;4898534;29;20026;-73
2020/12/10 09:35:59;;;;;;;18.25;9.02;;;6.60;99.90;;;;;;4915212;29;20096;-72
2020/12/10 09:38:24;;;;;;;16.25;9.23;;;6.60;99.90;;;;;;4907480;29;20075;-73
2020/12/10 09:40:50;;;;;;;17.27;10.38;;;6.60;99.90;;;;;;4885396;29;20052;-73
2020/12/10 09:43:16;;;;;;;19.98;8.93;;;6.80;99.90;;;;;;4896202;29;20028;-73
2020/12/10 09:45:45;;;;;;;17.10;8.90;;;6.80;99.90;;;;;;4896322;29;20047;-73
2020/12/10 09:48:11;;;;;;;17.60;9.98;;;6.70;99.90;;;;;;4883406;29;20044;-73
2020/12/10 09:50:37;;;;;;;20.20;9.23;;;6.60;99.90;;;;;;4890460;29;20477;-72
2020/12/10 09:53:36;;;;;;;14.52;9.45;;;6.70;99.90;;;;;;4911907;29;20035;-73
2020/12/10 09:56:12;;;;;;;18.67;10.02;;;6.70;99.90;;;;;;4914777;29;20045;-73
2020/12/10 09:58:35;;;;;;;15.00;9.32;;;6.70;99.90;;;;;;4914808;29;20111;-71
2020/12/10 10:01:01;;;;;;;16.35;8.30;;;6.70;99.90;;;;;;4915184;29;20517;-72
2020/12/10 10:03:26;;;;;;;15.23;8.75;;;7.00;99.90;;;;;;4914775;29;20111;-73
2020/12/10 10:05:52;;;;;;;16.70;9.25;;;6.90;99.90;;;;;;4911145;29;20100;-73
2020/12/10 10:08:21;;;;;;;13.95;8.40;;;7.00;99.90;;;;;;4907328;29;20283;-72
2020/12/10 10:10:46;;;;;;;12.80;8.30;;;7.00;99.90;;;;;;4918719;29;20024;-72
2020/12/10 10:13:12;;;;;;;12.75;8.05;;;7.10;99.90;;;;;;4918315;29;20095;-73
2020/12/10 10:15:38;;;;;;;12.85;8.18;;;7.00;99.90;;;;;;4919023;29;20471;-72
2020/12/10 10:18:04;;;;;;;12.75;8.13;;;6.90;99.90;;;;;;4918226;29;20668;-72
2020/12/10 10:20:30;;;;;;;11.95;8.10;;;6.70;99.90;;;;;;4918584;29;20063;-73
2020/12/10 10:22:57;;;;;;;15.27;8.32;;;6.90;99.90;;;;;;4918330;29;20035;-71
2020/12/10 10:25:22;;;;;;;14.23;7.90;;;6.80;99.90;;;;;;4918430;29;20087;-74
2020/12/10 10:27:49;;;;;;;15.90;7.45;;;6.80;99.90;;;;;;4918325;29;20040;-74
2020/12/10 10:30:15;;;;;;;12.70;7.55;;;6.70;99.90;;;;;;4901224;29;20043;-72
2020/12/10 10:32:40;;;;;;;17.30;7.72;;;6.70;99.90;;;;;;4915643;29;20040;-74
2020/12/10 10:35:06;;;;;;;14.60;8.20;;;6.80;99.90;;;;;;4918273;29;20028;-74
2020/12/10 10:37:32;;;;;;;13.55;7.90;;;6.70;99.90;;;;;;4901245;29;20498;-73
2020/12/10 10:39:59;;;;;;;11.48;7.70;;;6.70;99.90;;;;;;4918282;29;20029;-73
2020/12/10 10:42:24;;;;;;;16.35;8.25;;;6.80;99.90;;;;;;4917787;29;20043;-73
2020/12/10 10:44:50;;;;;;;16.42;8.13;;;6.90;99.90;;;;;;4906269;29;20632;-73
2020/12/10 10:47:16;;;;;;;17.48;8.23;;;6.90;99.90;;;;;;4899225;29;21632;-73
2020/12/10 10:49:41;;;;;;;17.13;7.90;;;7.00;99.90;;;;;;4899152;29;20036;-73
2020/12/10 10:52:07;;;;;;;13.93;8.52;;;6.90;99.90;;;;;;4899472;29;20112;-73
2020/12/10 10:54:32;;;;;;;15.90;8.70;;;7.00;99.90;;;;;;4899172;29;20040;-74
2020/12/10 10:56:58;;;;;;;13.25;8.50;;;6.90;99.90;;;;;;4899304;29;20028;-73
2020/12/10 10:59:24;;;;;;;17.83;9.55;;;6.90;99.90;;;;;;4898908;29;20036;-73
2020/12/10 11:01:49;;;;;;;17.10;9.73;;;6.90;99.90;;;;;;4898697;29;20492;-73
2020/12/10 11:04:15;;;;;;;12.40;9.15;;;6.80;99.90;;;;;;4898817;29;20393;-73
2020/12/10 11:06:40;;;;;;;19.65;10.07;;;6.80;99.90;;;;;;4909174;29;20083;-73
2020/12/10 11:09:06;;;;;;;17.23;9.23;;;6.80;99.90;;;;;;4902420;29;20047;-73
2020/12/10 11:11:32;;;;;;;18.10;9.95;;;6.80;99.90;;;;;;4916754;29;20038;-74
2020/12/10 11:13:58;;;;;;;16.95;10.23;;;6.80;99.90;;;;;;4917296;29;20072;-72
2020/12/10 11:16:23;;;;;;;15.48;10.02;;;6.90;99.90;;;;;;4917567;29;20028;-72
2020/12/10 11:18:49;;;;;;;17.48;10.40;;;6.80;99.90;;;;;;4916584;29;20028;-74
2020/12/10 11:21:15;;;;;;;17.15;10.68;;;6.70;99.90;;;;;;4917433;29;20099;-74
2020/12/10 11:23:42;;;;;;;17.38;10.43;;;6.90;99.90;;;;;;4917344;29;20028;-74
2020/12/10 11:26:08;;;;;;;22.60;12.82;;;6.90;99.90;;;;;;4915355;29;20036;-74
2020/12/10 11:28:33;;;;;;;19.20;10.60;;;6.80;99.90;;;;;;4898071;29;20124;-74
2020/12/10 11:30:59;;;;;;;17.10;10.05;;;7.00;99.90;;;;;;4898043;29;20024;-74
2020/12/10 11:33:25;;;;;;;16.67;9.90;;;7.40;99.90;;;;;;4898441;29;20059;-74
2020/12/10 11:35:52;;;;;;;17.30;11.00;;;7.60;99.90;;;;;;4898540;29;20108;-74
2020/12/10 11:38:18;;;;;;;16.13;9.70;;;7.80;99.90;;;;;;4898321;29;20473;-74
2020/12/10 11:40:44;;;;;;;14.60;10.00;;;8.10;99.90;;;;;;4898180;29;20033;-74
2020/12/10 11:43:10;;;;;;;16.50;10.77;;;8.20;99.90;;;;;;4898186;29;20430;-74
2020/12/10 11:45:37;;;;;;;18.58;10.52;;;8.20;99.90;;;;;;4898001;29;20043;-73
2020/12/10 11:48:04;;;;;;;20.25;11.27;;;8.20;99.90;;;;;;4898024;29;20033;-73
2020/12/10 11:50:34;;;;;;;14.80;9.48;;;8.40;99.90;;;;;;4910286;29;20039;-73
2020/12/10 11:53:00;;;;;;;18.48;9.45;;;8.30;99.90;;;;;;4903305;29;20032;-73
2020/12/10 11:55:26;;;;;;;16.65;9.57;;;8.60;99.90;;;;;;4897760;29;20381;-73
2020/12/10 11:57:52;;;;;;;16.35;9.52;;;8.80;99.90;;;;;;4897852;29;20025;-74
2020/12/10 12:00:18;;;;;;;19.00;10.15;;;8.70;99.90;;;;;;4897141;29;20056;-73
2020/12/10 12:02:44;;;;;;;14.05;9.60;;;8.90;99.90;;;;;;4897943;29;20024;-73
2020/12/10 12:05:10;;;;;;;16.77;9.50;;;8.90;99.90;;;;;;4897776;29;20033;-73
2020/12/10 12:07:39;;;;;;;14.60;9.35;;;8.90;99.90;;;;;;4897867;29;20033;-72
2020/12/10 12:10:06;;;;;;;13.57;9.27;;;8.90;99.90;;;;;;4898687;29;20037;-74
2020/12/10 12:12:37;;;;;;;15.00;9.25;;;8.70;99.90;;;;;;4909544;29;20043;-71
2020/12/10 12:15:05;;;;;;;17.92;10.15;;;8.80;99.90;;;;;;4916633;29;20035;-73
2020/12/10 12:17:30;;;;;;;19.00;11.35;;;8.30;99.90;;;;;;4897358;29;20116;-73
2020/12/10 12:19:56;;;;;;;19.50;10.32;;;8.10;99.90;;;;;;4886084;29;20101;-72
2020/12/10 12:22:22;;;;;;;21.40;10.30;;;8.70;99.90;;;;;;4887937;29;20029;-73
2020/12/10 12:24:47;;;;;;;23.05;10.27;;;9.00;99.90;;;;;;4889897;29;20036;-72
2020/12/10 12:27:13;;;;;;;19.80;10.35;;;9.10;99.90;;;;;;4899197;29;21839;-72
2020/12/10 12:29:40;;;;;;;17.63;8.45;;;9.30;99.90;;;;;;4896265;29;20043;-61
2020/12/10 12:32:07;;;;;;;12.00;6.15;;;12.10;99.90;;;;;;4897670;29;20439;-62
2020/12/10 12:34:33;;;;;;;14.02;8.50;;;13.90;99.90;;;;;;4897268;29;20043;-61
2020/12/10 12:36:59;;;;;;;19.65;10.25;;;15.00;99.90;;;;;;4897078;29;20045;-72
2020/12/10 12:39:24;;;;;;;17.25;9.85;;;13.30;99.90;;;;;;4896987;29;20394;-73
2020/12/10 12:41:50;;;;;;;17.38;10.25;;;11.30;99.90;;;;;;4897019;29;20092;-73
2020/12/10 12:44:16;;;;;;;20.35;10.38;;;10.80;99.90;;;;;;4897088;29;20036;-72